sensor_id;sensor_type;location;lat;lon;timestamp;temperature;humidity
3023;DHT22;1521;53.584;9.938;2023-03-14T00:00:15;11.40;99.90
3023;DHT22;1521;53.584;9.938;2023-03-14T00:02:40;11.30;99.90
3023;DHT22;1521;53.584;9.938;2023-03-14T00:05:07;11.30;99.90
3023;DHT22;1521;53.584;9.938;2023-03-14T00:07:37;11.20;99.90
3023;DHT22;1521;53.584;9.938;2023-03-14T00:10:12;11.20;99.90
3023;DHT22;1521;53.584;9.938;2023-03-14T00:12:39;11.20;99.90
3023;DHT22;1521;53.584;9.938;2023-03-14T00:15:05;11.10;99.90
3023;DHT22;1521;53.584;9.938;2023-03-14T00:17:34;11.00;99.90
3023;DHT22;1521;53.584;9.938;2023-03-14T00:19:59;11.00;99.90
3023;DHT22;1521;53.584;9.938;2023-03-14T00:22:30;11.00;99.90
3023;DHT22;1521;53.584;9.938;2023-03-14T00:24:56;11.00;99.90
3023;DHT22;1521;53.584;9.938;2023-03-14T00:27:22;11.00;99.90
3023;DHT22;1521;53.584;9.938;2023-03-14T00:29:47;10.90;99.90
3023;DHT22;1521;53.584;9.938;2023-03-14T00:32:13;11.00;99.90
3023;DHT22;1521;53.584;9.938;2023-03-14T00:34:38;11.00;99.90
3023;DHT22;1521;53.584;9.938;2023-03-14T00:37:05;11.00;99.90
3023;DHT22;1521;53.584;9.938;2023-03-14T00:39:31;11.00;99.90
3023;DHT22;1521;53.584;9.938;2023-03-14T00:41:56;11.10;99.90
3023;DHT22;1521;53.584;9.938;2023-03-14T00:44:22;11.10;99.90
3023;DHT22;1521;53.584;9.938;2023-03-14T00:46:47;11.10;99.90
3023;DHT22;1521;53.584;9.938;2023-03-14T00:49:13;11.20;99.90
3023;DHT22;1521;53.584;9.938;2023-03-14T00:51:38;11.20;99.90
3023;DHT22;1521;53.584;9.938;2023-03-14T00:54:04;11.20;99.90
3023;DHT22;1521;53.584;9.938;2023-03-14T00:56:30;11.20;99.90
3023;DHT22;1521;53.584;9.938;2023-03-14T00:58:56;11.20;99.90
3023;DHT22;1521;53.584;9.938;2023-03-14T01:01:23;11.20;99.90
3023;DHT22;1521;53.584;9.938;2023-03-14T01:03:51;11.30;99.90
3023;DHT22;1521;53.584;9.938;2023-03-14T01:06:20;11.30;99.90
3023;DHT22;1521;53.584;9.938;2023-03-14T01:08:47;11.30;99.90
3023;DHT22;1521;53.584;9.938;2023-03-14T01:11:15;11.30;99.90
3023;DHT22;1521;53.584;9.938;2023-03-14T01:13:42;11.30;99.90
3023;DHT22;1521;53.584;9.938;2023-03-14T01:16:10;11.30;99.90
3023;DHT22;1521;53.584;9.938;2023-03-14T01:18:37;11.30;99.90
3023;DHT22;1521;53.584;9.938;2023-03-14T01:21:08;11.30;99.90
3023;DHT22;1521;53.584;9.938;2023-03-14T01:23:34;11.40;99.90
3023;DHT22;1521;53.584;9.938;2023-03-14T01:26:00;11.40;99.90
3023;DHT22;1521;53.584;9.938;2023-03-14T01:28:25;11.30;99.90
3023;DHT22;1521;53.584;9.938;2023-03-14T01:30:51;11.40;99.90
3023;DHT22;1521;53.584;9.938;2023-03-14T01:33:17;11.40;97.00
3023;DHT22;1521;53.584;9.938;2023-03-14T01:35:42;11.40;93.40
3023;DHT22;1521;53.584;9.938;2023-03-14T01:38:08;11.40;93.50
3023;DHT22;1521;53.584;9.938;2023-03-14T01:40:34;11.40;83.50
3023;DHT22;1521;53.584;9.938;2023-03-14T01:43:12;11.40;70.70
3023;DHT22;1521;53.584;9.938;2023-03-14T01:48:22;11.40;64.30
3023;DHT22;1521;53.584;9.938;2023-03-14T01:50:47;11.30;82.00
3023;DHT22;1521;53.584;9.938;2023-03-14T01:53:13;11.30;88.00
3023;DHT22;1521;53.584;9.938;2023-03-14T01:55:40;11.30;99.90
3023;DHT22;1521;53.584;9.938;2023-03-14T01:58:05;11.20;99.90
3023;DHT22;1521;53.584;9.938;2023-03-14T02:00:31;11.10;99.90
3023;DHT22;1521;53.584;9.938;2023-03-14T02:03:05;11.20;99.90
3023;DHT22;1521;53.584;9.938;2023-03-14T02:05:33;11.10;99.90
3023;DHT22;1521;53.584;9.938;2023-03-14T02:08:01;11.00;99.90
3023;DHT22;1521;53.584;9.938;2023-03-14T02:10:33;10.90;99.90
3023;DHT22;1521;53.584;9.938;2023-03-14T02:13:03;10.90;99.90
3023;DHT22;1521;53.584;9.938;2023-03-14T02:15:30;11.00;99.90
3023;DHT22;1521;53.584;9.938;2023-03-14T02:17:56;10.90;99.90
3023;DHT22;1521;53.584;9.938;2023-03-14T02:20:58;10.90;99.90
3023;DHT22;1521;53.584;9.938;2023-03-14T02:26:14;10.90;99.90
3023;DHT22;1521;53.584;9.938;2023-03-14T02:28:41;10.80;99.90
3023;DHT22;1521;53.584;9.938;2023-03-14T02:31:07;10.80;99.90
3023;DHT22;1521;53.584;9.938;2023-03-14T02:33:35;10.70;99.90
3023;DHT22;1521;53.584;9.938;2023-03-14T02:36:05;10.70;99.90
3023;DHT22;1521;53.584;9.938;2023-03-14T02:38:52;10.70;99.90
3023;DHT22;1521;53.584;9.938;2023-03-14T02:41:20;10.80;99.90
3023;DHT22;1521;53.584;9.938;2023-03-14T02:43:46;10.80;99.90
3023;DHT22;1521;53.584;9.938;2023-03-14T02:46:14;10.90;99.90
3023;DHT22;1521;53.584;9.938;2023-03-14T02:48:51;10.90;99.90
3023;DHT22;1521;53.584;9.938;2023-03-14T02:51:18;10.90;99.90
3023;DHT22;1521;53.584;9.938;2023-03-14T02:53:44;10.90;99.90
3023;DHT22;1521;53.584;9.938;2023-03-14T02:56:10;10.90;99.90
3023;DHT22;1521;53.584;9.938;2023-03-14T02:58:36;10.90;99.90
3023;DHT22;1521;53.584;9.938;2023-03-14T03:01:02;10.90;99.90
3023;DHT22;1521;53.584;9.938;2023-03-14T03:03:28;11.00;99.90
3023;DHT22;1521;53.584;9.938;2023-03-14T03:05:55;11.00;99.90
3023;DHT22;1521;53.584;9.938;2023-03-14T03:08:22;11.00;99.90
3023;DHT22;1521;53.584;9.938;2023-03-14T03:10:49;11.00;99.90
3023;DHT22;1521;53.584;9.938;2023-03-14T03:13:15;11.00;99.90
3023;DHT22;1521;53.584;9.938;2023-03-14T03:15:40;11.10;99.90
3023;DHT22;1521;53.584;9.938;2023-03-14T03:18:06;11.10;99.90
3023;DHT22;1521;53.584;9.938;2023-03-14T03:20:32;11.10;99.90
3023;DHT22;1521;53.584;9.938;2023-03-14T03:22:59;11.20;99.90
3023;DHT22;1521;53.584;9.938;2023-03-14T03:25:24;11.20;99.90
3023;DHT22;1521;53.584;9.938;2023-03-14T03:27:50;11.20;99.90
3023;DHT22;1521;53.584;9.938;2023-03-14T03:30:16;11.30;99.90
3023;DHT22;1521;53.584;9.938;2023-03-14T03:32:42;11.30;99.90
3023;DHT22;1521;53.584;9.938;2023-03-14T03:35:08;11.30;99.90
3023;DHT22;1521;53.584;9.938;2023-03-14T03:37:34;11.30;99.90
3023;DHT22;1521;53.584;9.938;2023-03-14T03:40:00;11.30;99.90
3023;DHT22;1521;53.584;9.938;2023-03-14T03:42:27;11.40;99.90
3023;DHT22;1521;53.584;9.938;2023-03-14T03:44:53;11.40;99.90
3023;DHT22;1521;53.584;9.938;2023-03-14T03:47:18;11.40;99.90
3023;DHT22;1521;53.584;9.938;2023-03-14T03:49:44;11.40;99.90
3023;DHT22;1521;53.584;9.938;2023-03-14T03:52:10;11.30;99.90
3023;DHT22;1521;53.584;9.938;2023-03-14T03:54:36;11.40;99.90
3023;DHT22;1521;53.584;9.938;2023-03-14T03:57:01;11.30;99.90
3023;DHT22;1521;53.584;9.938;2023-03-14T03:59:27;11.30;99.90
3023;DHT22;1521;53.584;9.938;2023-03-14T04:01:52;11.30;99.90
3023;DHT22;1521;53.584;9.938;2023-03-14T04:04:18;11.20;99.90
3023;DHT22;1521;53.584;9.938;2023-03-14T04:06:44;11.20;99.90
3023;DHT22;1521;53.584;9.938;2023-03-14T04:09:10;11.20;99.90
3023;DHT22;1521;53.584;9.938;2023-03-14T04:11:36;11.20;99.90
3023;DHT22;1521;53.584;9.938;2023-03-14T04:14:02;11.20;99.90
3023;DHT22;1521;53.584;9.938;2023-03-14T04:16:28;11.20;99.90
3023;DHT22;1521;53.584;9.938;2023-03-14T04:18:54;11.20;96.80
3023;DHT22;1521;53.584;9.938;2023-03-14T04:21:20;11.20;99.20
3023;DHT22;1521;53.584;9.938;2023-03-14T04:23:45;11.20;99.10
3023;DHT22;1521;53.584;9.938;2023-03-14T04:26:11;11.20;97.20
3023;DHT22;1521;53.584;9.938;2023-03-14T04:28:36;11.20;99.90
3023;DHT22;1521;53.584;9.938;2023-03-14T04:31:13;11.20;89.30
3023;DHT22;1521;53.584;9.938;2023-03-14T04:33:39;11.20;88.10
3023;DHT22;1521;53.584;9.938;2023-03-14T04:36:06;11.20;78.10
3023;DHT22;1521;53.584;9.938;2023-03-14T04:38:32;11.20;69.10
3023;DHT22;1521;53.584;9.938;2023-03-14T04:40:58;11.20;62.70
3023;DHT22;1521;53.584;9.938;2023-03-14T04:43:24;11.20;57.10
3023;DHT22;1521;53.584;9.938;2023-03-14T04:45:54;11.30;51.40
3023;DHT22;1521;53.584;9.938;2023-03-14T04:48:21;11.20;47.90
3023;DHT22;1521;53.584;9.938;2023-03-14T04:50:47;11.20;41.70
3023;DHT22;1521;53.584;9.938;2023-03-14T04:53:13;11.30;38.00
3023;DHT22;1521;53.584;9.938;2023-03-14T04:55:39;11.20;32.90
3023;DHT22;1521;53.584;9.938;2023-03-14T04:58:05;11.30;27.00
3023;DHT22;1521;53.584;9.938;2023-03-14T05:00:30;11.30;18.10
3023;DHT22;1521;53.584;9.938;2023-03-14T05:02:56;11.30;17.60
3023;DHT22;1521;53.584;9.938;2023-03-14T05:05:22;11.10;12.10
3023;DHT22;1521;53.584;9.938;2023-03-14T05:07:47;10.90;14.00
3023;DHT22;1521;53.584;9.938;2023-03-14T05:10:13;10.80;22.20
3023;DHT22;1521;53.584;9.938;2023-03-14T05:12:39;10.60;45.50
3023;DHT22;1521;53.584;9.938;2023-03-14T05:15:05;10.50;99.90
3023;DHT22;1521;53.584;9.938;2023-03-14T05:17:32;10.30;99.90
3023;DHT22;1521;53.584;9.938;2023-03-14T05:19:58;10.10;1.00
3023;DHT22;1521;53.584;9.938;2023-03-14T05:22:23;10.00;1.00
3023;DHT22;1521;53.584;9.938;2023-03-14T05:24:49;9.90;99.90
3023;DHT22;1521;53.584;9.938;2023-03-14T05:27:14;9.70;99.90
3023;DHT22;1521;53.584;9.938;2023-03-14T05:29:40;9.70;99.90
3023;DHT22;1521;53.584;9.938;2023-03-14T05:32:06;9.60;99.90
3023;DHT22;1521;53.584;9.938;2023-03-14T05:34:31;9.60;99.90
3023;DHT22;1521;53.584;9.938;2023-03-14T05:36:57;9.50;1.00
3023;DHT22;1521;53.584;9.938;2023-03-14T05:39:23;9.50;99.90
3023;DHT22;1521;53.584;9.938;2023-03-14T05:41:49;9.50;99.90
3023;DHT22;1521;53.584;9.938;2023-03-14T05:44:15;9.50;1.00
3023;DHT22;1521;53.584;9.938;2023-03-14T05:46:41;9.60;99.90
3023;DHT22;1521;53.584;9.938;2023-03-14T05:49:06;9.60;1.00
3023;DHT22;1521;53.584;9.938;2023-03-14T05:51:32;9.50;1.00
3023;DHT22;1521;53.584;9.938;2023-03-14T05:53:58;9.60;99.90
3023;DHT22;1521;53.584;9.938;2023-03-14T05:56:23;9.60;99.90
3023;DHT22;1521;53.584;9.938;2023-03-14T05:58:49;9.60;99.90
3023;DHT22;1521;53.584;9.938;2023-03-14T06:01:14;9.60;99.90
3023;DHT22;1521;53.584;9.938;2023-03-14T06:03:40;9.60;1.00
3023;DHT22;1521;53.584;9.938;2023-03-14T06:06:06;9.70;1.00
3023;DHT22;1521;53.584;9.938;2023-03-14T06:08:31;9.70;99.90
3023;DHT22;1521;53.584;9.938;2023-03-14T06:10:57;9.70;99.90
3023;DHT22;1521;53.584;9.938;2023-03-14T06:13:23;9.70;99.90
3023;DHT22;1521;53.584;9.938;2023-03-14T06:15:49;9.70;1.00
3023;DHT22;1521;53.584;9.938;2023-03-14T06:18:14;9.70;1.00
3023;DHT22;1521;53.584;9.938;2023-03-14T06:20:40;9.70;99.90
3023;DHT22;1521;53.584;9.938;2023-03-14T06:23:07;9.70;99.90
3023;DHT22;1521;53.584;9.938;2023-03-14T06:25:34;9.60;99.90
3023;DHT22;1521;53.584;9.938;2023-03-14T06:28:00;9.70;1.00
3023;DHT22;1521;53.584;9.938;2023-03-14T06:30:26;9.70;1.00
3023;DHT22;1521;53.584;9.938;2023-03-14T06:32:51;9.70;1.00
3023;DHT22;1521;53.584;9.938;2023-03-14T06:35:17;9.70;1.00
3023;DHT22;1521;53.584;9.938;2023-03-14T06:37:43;9.80;99.90
3023;DHT22;1521;53.584;9.938;2023-03-14T06:40:10;9.80;1.00
3023;DHT22;1521;53.584;9.938;2023-03-14T06:42:36;9.80;23.90
3023;DHT22;1521;53.584;9.938;2023-03-14T06:45:02;9.80;16.80
3023;DHT22;1521;53.584;9.938;2023-03-14T06:47:28;9.80;1.00
3023;DHT22;1521;53.584;9.938;2023-03-14T06:49:53;9.90;1.00
3023;DHT22;1521;53.584;9.938;2023-03-14T06:52:19;9.90;1.00
3023;DHT22;1521;53.584;9.938;2023-03-14T06:54:44;9.90;98.60
3023;DHT22;1521;53.584;9.938;2023-03-14T06:57:10;9.80;1.00
3023;DHT22;1521;53.584;9.938;2023-03-14T06:59:36;9.90;25.60
3023;DHT22;1521;53.584;9.938;2023-03-14T07:02:01;9.90;99.90
3023;DHT22;1521;53.584;9.938;2023-03-14T07:04:27;10.00;99.90
3023;DHT22;1521;53.584;9.938;2023-03-14T07:06:52;10.00;26.60
3023;DHT22;1521;53.584;9.938;2023-03-14T07:09:18;10.00;99.90
3023;DHT22;1521;53.584;9.938;2023-03-14T07:11:44;10.10;99.90
3023;DHT22;1521;53.584;9.938;2023-03-14T07:14:09;10.00;99.90
3023;DHT22;1521;53.584;9.938;2023-03-14T07:16:35;10.10;99.90
3023;DHT22;1521;53.584;9.938;2023-03-14T07:19:02;10.10;99.90
3023;DHT22;1521;53.584;9.938;2023-03-14T07:21:28;10.10;1.00
3023;DHT22;1521;53.584;9.938;2023-03-14T07:23:54;10.10;1.00
3023;DHT22;1521;53.584;9.938;2023-03-14T07:26:19;10.20;1.00
3023;DHT22;1521;53.584;9.938;2023-03-14T07:28:45;10.20;1.00
3023;DHT22;1521;53.584;9.938;2023-03-14T07:31:11;10.20;1.00
3023;DHT22;1521;53.584;9.938;2023-03-14T07:33:36;10.20;1.00
3023;DHT22;1521;53.584;9.938;2023-03-14T07:36:02;10.20;1.00
3023;DHT22;1521;53.584;9.938;2023-03-14T07:38:29;10.20;1.00
3023;DHT22;1521;53.584;9.938;2023-03-14T07:41:01;10.30;1.00
3023;DHT22;1521;53.584;9.938;2023-03-14T07:43:28;10.30;1.00
3023;DHT22;1521;53.584;9.938;2023-03-14T07:45:53;10.30;1.00
3023;DHT22;1521;53.584;9.938;2023-03-14T07:48:19;10.20;1.00
3023;DHT22;1521;53.584;9.938;2023-03-14T07:50:48;10.10;99.90
3023;DHT22;1521;53.584;9.938;2023-03-14T07:53:15;10.10;99.90
3023;DHT22;1521;53.584;9.938;2023-03-14T07:55:40;10.00;1.00
3023;DHT22;1521;53.584;9.938;2023-03-14T07:58:06;10.10;1.00
3023;DHT22;1521;53.584;9.938;2023-03-14T08:00:31;10.20;99.90
3023;DHT22;1521;53.584;9.938;2023-03-14T08:02:58;10.20;54.20
3023;DHT22;1521;53.584;9.938;2023-03-14T08:05:23;10.20;1.00
3023;DHT22;1521;53.584;9.938;2023-03-14T08:07:49;10.20;1.00
3023;DHT22;1521;53.584;9.938;2023-03-14T08:10:15;10.20;1.00
3023;DHT22;1521;53.584;9.938;2023-03-14T08:12:54;10.20;1.00
3023;DHT22;1521;53.584;9.938;2023-03-14T08:15:20;10.40;99.90
3023;DHT22;1521;53.584;9.938;2023-03-14T08:17:46;10.60;99.90
3023;DHT22;1521;53.584;9.938;2023-03-14T08:20:19;10.70;99.90
3023;DHT22;1521;53.584;9.938;2023-03-14T08:22:46;10.60;99.90
3023;DHT22;1521;53.584;9.938;2023-03-14T08:25:11;10.60;99.90
3023;DHT22;1521;53.584;9.938;2023-03-14T08:27:37;10.60;99.90
3023;DHT22;1521;53.584;9.938;2023-03-14T08:30:05;10.60;99.90
3023;DHT22;1521;53.584;9.938;2023-03-14T08:32:31;10.70;99.90
3023;DHT22;1521;53.584;9.938;2023-03-14T08:34:57;10.80;99.90
3023;DHT22;1521;53.584;9.938;2023-03-14T08:37:23;10.80;99.90
3023;DHT22;1521;53.584;9.938;2023-03-14T08:39:50;10.70;99.90
3023;DHT22;1521;53.584;9.938;2023-03-14T08:42:16;10.80;99.90
3023;DHT22;1521;53.584;9.938;2023-03-14T08:44:42;10.80;99.90
3023;DHT22;1521;53.584;9.938;2023-03-14T08:47:07;10.80;99.90
3023;DHT22;1521;53.584;9.938;2023-03-14T08:49:33;10.80;99.90
3023;DHT22;1521;53.584;9.938;2023-03-14T08:51:58;10.80;99.90
3023;DHT22;1521;53.584;9.938;2023-03-14T08:54:24;10.70;99.90
3023;DHT22;1521;53.584;9.938;2023-03-14T08:56:49;10.70;99.90
3023;DHT22;1521;53.584;9.938;2023-03-14T08:59:15;10.70;99.90
3023;DHT22;1521;53.584;9.938;2023-03-14T09:01:41;10.60;99.90
3023;DHT22;1521;53.584;9.938;2023-03-14T09:04:06;10.60;1.00
3023;DHT22;1521;53.584;9.938;2023-03-14T09:06:32;10.60;1.00
3023;DHT22;1521;53.584;9.938;2023-03-14T09:08:57;10.50;1.00
3023;DHT22;1521;53.584;9.938;2023-03-14T09:11:23;10.50;1.00
3023;DHT22;1521;53.584;9.938;2023-03-14T09:13:49;10.50;1.00
3023;DHT22;1521;53.584;9.938;2023-03-14T09:16:15;10.40;1.00
3023;DHT22;1521;53.584;9.938;2023-03-14T09:18:40;10.40;1.00
3023;DHT22;1521;53.584;9.938;2023-03-14T09:21:06;10.40;18.60
3023;DHT22;1521;53.584;9.938;2023-03-14T09:23:32;10.50;10.00
3023;DHT22;1521;53.584;9.938;2023-03-14T09:25:59;10.50;1.00
3023;DHT22;1521;53.584;9.938;2023-03-14T09:28:25;10.50;93.40
3023;DHT22;1521;53.584;9.938;2023-03-14T09:30:51;10.50;99.90
3023;DHT22;1521;53.584;9.938;2023-03-14T09:33:17;10.40;99.90
3023;DHT22;1521;53.584;9.938;2023-03-14T09:35:43;10.50;99.90
3023;DHT22;1521;53.584;9.938;2023-03-14T09:38:09;10.50;99.90
3023;DHT22;1521;53.584;9.938;2023-03-14T09:40:36;10.60;99.90
3023;DHT22;1521;53.584;9.938;2023-03-14T09:43:03;10.50;97.80
3023;DHT22;1521;53.584;9.938;2023-03-14T09:45:36;10.60;99.90
3023;DHT22;1521;53.584;9.938;2023-03-14T09:48:04;10.70;86.70
3023;DHT22;1521;53.584;9.938;2023-03-14T09:50:40;10.70;99.90
3023;DHT22;1521;53.584;9.938;2023-03-14T09:53:14;10.50;1.00
3023;DHT22;1521;53.584;9.938;2023-03-14T09:55:42;10.00;1.00
3023;DHT22;1521;53.584;9.938;2023-03-14T09:58:17;9.40;1.00
3023;DHT22;1521;53.584;9.938;2023-03-14T10:00:44;8.90;1.00
3023;DHT22;1521;53.584;9.938;2023-03-14T10:05:39;8.50;1.00
3023;DHT22;1521;53.584;9.938;2023-03-14T10:08:06;8.40;99.90
3023;DHT22;1521;53.584;9.938;2023-03-14T10:10:32;8.20;1.00
3023;DHT22;1521;53.584;9.938;2023-03-14T10:13:22;8.00;99.90
3023;DHT22;1521;53.584;9.938;2023-03-14T10:18:26;7.60;1.00
3023;DHT22;1521;53.584;9.938;2023-03-14T10:23:44;7.50;1.00
3023;DHT22;1521;53.584;9.938;2023-03-14T10:26:15;7.40;1.00
3023;DHT22;1521;53.584;9.938;2023-03-14T10:28:51;7.00;1.00
3023;DHT22;1521;53.584;9.938;2023-03-14T10:31:17;6.70;1.00
3023;DHT22;1521;53.584;9.938;2023-03-14T10:34:00;6.50;1.00
3023;DHT22;1521;53.584;9.938;2023-03-14T10:36:32;6.30;99.90
3023;DHT22;1521;53.584;9.938;2023-03-14T10:39:26;6.20;99.90
3023;DHT22;1521;53.584;9.938;2023-03-14T10:41:54;6.20;1.00
3023;DHT22;1521;53.584;9.938;2023-03-14T10:44:24;6.00;99.90
3023;DHT22;1521;53.584;9.938;2023-03-14T10:46:59;5.90;99.90
3023;DHT22;1521;53.584;9.938;2023-03-14T10:49:28;5.70;1.00
3023;DHT22;1521;53.584;9.938;2023-03-14T10:51:55;5.70;99.90
3023;DHT22;1521;53.584;9.938;2023-03-14T10:54:22;5.70;99.90
3023;DHT22;1521;53.584;9.938;2023-03-14T10:56:59;5.60;99.90
3023;DHT22;1521;53.584;9.938;2023-03-14T10:59:29;5.60;99.90
3023;DHT22;1521;53.584;9.938;2023-03-14T11:02:27;5.50;1.00
3023;DHT22;1521;53.584;9.938;2023-03-14T11:07:46;5.30;99.90
3023;DHT22;1521;53.584;9.938;2023-03-14T11:20:38;5.10;99.90
3023;DHT22;1521;53.584;9.938;2023-03-14T11:23:16;5.00;99.90
3023;DHT22;1521;53.584;9.938;2023-03-14T11:28:29;4.70;99.90
3023;DHT22;1521;53.584;9.938;2023-03-14T11:31:23;4.70;99.90
3023;DHT22;1521;53.584;9.938;2023-03-14T11:36:41;4.70;58.20
3023;DHT22;1521;53.584;9.938;2023-03-14T11:39:14;4.70;99.90
3023;DHT22;1521;53.584;9.938;2023-03-14T11:41:54;4.80;99.90
3023;DHT22;1521;53.584;9.938;2023-03-14T11:44:27;4.90;99.90
3023;DHT22;1521;53.584;9.938;2023-03-14T11:47:02;5.10;99.90
3023;DHT22;1521;53.584;9.938;2023-03-14T11:49:40;5.30;1.00
3023;DHT22;1521;53.584;9.938;2023-03-14T11:52:20;5.50;99.90
3023;DHT22;1521;53.584;9.938;2023-03-14T11:54:53;5.60;1.00
3023;DHT22;1521;53.584;9.938;2023-03-14T11:57:21;5.70;99.90
3023;DHT22;1521;53.584;9.938;2023-03-14T12:03:02;5.60;99.90
3023;DHT22;1521;53.584;9.938;2023-03-14T12:05:52;5.60;99.90
3023;DHT22;1521;53.584;9.938;2023-03-14T12:13:34;5.70;99.90
3023;DHT22;1521;53.584;9.938;2023-03-14T12:16:04;5.80;99.90
3023;DHT22;1521;53.584;9.938;2023-03-14T12:18:34;5.80;99.90
3023;DHT22;1521;53.584;9.938;2023-03-14T12:21:06;5.80;99.90
3023;DHT22;1521;53.584;9.938;2023-03-14T12:23:56;5.60;87.00
3023;DHT22;1521;53.584;9.938;2023-03-14T12:26:27;5.60;90.90
3023;DHT22;1521;53.584;9.938;2023-03-14T12:29:18;5.50;99.90
3023;DHT22;1521;53.584;9.938;2023-03-14T12:42:38;6.00;99.90
3023;DHT22;1521;53.584;9.938;2023-03-14T12:45:13;6.00;99.90
3023;DHT22;1521;53.584;9.938;2023-03-14T12:50:14;6.00;99.90
3023;DHT22;1521;53.584;9.938;2023-03-14T13:01:23;5.90;39.30
3023;DHT22;1521;53.584;9.938;2023-03-14T13:03:54;5.80;99.90
3023;DHT22;1521;53.584;9.938;2023-03-14T13:07:13;5.80;99.90
3023;DHT22;1521;53.584;9.938;2023-03-14T13:12:25;5.70;99.90
3023;DHT22;1521;53.584;9.938;2023-03-14T13:14:53;5.90;99.90
3023;DHT22;1521;53.584;9.938;2023-03-14T13:17:31;6.10;99.90
3023;DHT22;1521;53.584;9.938;2023-03-14T13:20:01;6.30;63.40
3023;DHT22;1521;53.584;9.938;2023-03-14T13:22:31;6.60;1.00
3023;DHT22;1521;53.584;9.938;2023-03-14T13:25:03;6.90;1.00
3023;DHT22;1521;53.584;9.938;2023-03-14T13:27:31;7.20;1.00
3023;DHT22;1521;53.584;9.938;2023-03-14T13:29:57;7.30;1.00
3023;DHT22;1521;53.584;9.938;2023-03-14T13:32:27;7.20;1.00
3023;DHT22;1521;53.584;9.938;2023-03-14T13:34:57;7.20;1.00
3023;DHT22;1521;53.584;9.938;2023-03-14T13:37:25;7.00;1.00
3023;DHT22;1521;53.584;9.938;2023-03-14T13:39:52;6.80;1.00
3023;DHT22;1521;53.584;9.938;2023-03-14T13:42:21;6.70;1.00
3023;DHT22;1521;53.584;9.938;2023-03-14T13:44:47;6.70;1.00
3023;DHT22;1521;53.584;9.938;2023-03-14T13:47:17;6.70;1.00
3023;DHT22;1521;53.584;9.938;2023-03-14T13:49:44;6.80;1.00
3023;DHT22;1521;53.584;9.938;2023-03-14T13:52:35;6.80;1.00
3023;DHT22;1521;53.584;9.938;2023-03-14T13:55:01;6.90;1.00
3023;DHT22;1521;53.584;9.938;2023-03-14T13:57:46;7.00;1.00
3023;DHT22;1521;53.584;9.938;2023-03-14T14:02:47;6.80;1.00
3023;DHT22;1521;53.584;9.938;2023-03-14T14:05:13;6.60;1.00
3023;DHT22;1521;53.584;9.938;2023-03-14T14:07:40;6.50;1.00
3023;DHT22;1521;53.584;9.938;2023-03-14T14:10:11;6.30;1.00
3023;DHT22;1521;53.584;9.938;2023-03-14T14:12:43;6.10;1.00
3023;DHT22;1521;53.584;9.938;2023-03-14T14:15:17;6.00;1.00
3023;DHT22;1521;53.584;9.938;2023-03-14T14:17:57;6.60;1.00
3023;DHT22;1521;53.584;9.938;2023-03-14T14:22:57;7.10;1.00
3023;DHT22;1521;53.584;9.938;2023-03-14T14:25:22;6.80;1.00
3023;DHT22;1521;53.584;9.938;2023-03-14T14:27:49;6.60;1.00
3023;DHT22;1521;53.584;9.938;2023-03-14T14:32:45;6.60;1.00
3023;DHT22;1521;53.584;9.938;2023-03-14T14:35:24;6.60;1.00
3023;DHT22;1521;53.584;9.938;2023-03-14T14:37:50;6.40;1.00
3023;DHT22;1521;53.584;9.938;2023-03-14T14:40:21;6.30;1.00
3023;DHT22;1521;53.584;9.938;2023-03-14T14:42:48;6.20;1.00
3023;DHT22;1521;53.584;9.938;2023-03-14T14:45:18;6.30;1.00
3023;DHT22;1521;53.584;9.938;2023-03-14T14:48:05;6.50;1.00
3023;DHT22;1521;53.584;9.938;2023-03-14T14:50:48;6.70;1.00
3023;DHT22;1521;53.584;9.938;2023-03-14T14:53:27;6.80;1.00
3023;DHT22;1521;53.584;9.938;2023-03-14T14:55:56;6.80;1.00
3023;DHT22;1521;53.584;9.938;2023-03-14T14:58:29;6.80;1.00
3023;DHT22;1521;53.584;9.938;2023-03-14T15:03:37;7.00;1.00
3023;DHT22;1521;53.584;9.938;2023-03-14T15:06:03;7.10;1.00
3023;DHT22;1521;53.584;9.938;2023-03-14T15:08:29;6.90;1.00
3023;DHT22;1521;53.584;9.938;2023-03-14T15:10:56;7.00;1.00
3023;DHT22;1521;53.584;9.938;2023-03-14T15:13:22;7.10;1.00
3023;DHT22;1521;53.584;9.938;2023-03-14T15:15:49;7.00;1.00
3023;DHT22;1521;53.584;9.938;2023-03-14T15:18:25;6.90;1.00
3023;DHT22;1521;53.584;9.938;2023-03-14T15:20:51;6.70;1.00
3023;DHT22;1521;53.584;9.938;2023-03-14T15:23:19;6.60;1.00
3023;DHT22;1521;53.584;9.938;2023-03-14T15:25:45;6.40;1.00
3023;DHT22;1521;53.584;9.938;2023-03-14T15:28:23;6.40;1.00
3023;DHT22;1521;53.584;9.938;2023-03-14T15:30:53;6.40;1.00
3023;DHT22;1521;53.584;9.938;2023-03-14T15:33:18;6.30;1.00
3023;DHT22;1521;53.584;9.938;2023-03-14T15:35:45;6.30;1.00
3023;DHT22;1521;53.584;9.938;2023-03-14T15:38:12;6.30;1.00
3023;DHT22;1521;53.584;9.938;2023-03-14T15:40:39;6.20;1.00
3023;DHT22;1521;53.584;9.938;2023-03-14T15:43:05;6.20;1.00
3023;DHT22;1521;53.584;9.938;2023-03-14T15:45:30;6.10;1.00
3023;DHT22;1521;53.584;9.938;2023-03-14T15:47:56;5.80;1.00
3023;DHT22;1521;53.584;9.938;2023-03-14T15:50:22;5.80;1.00
3023;DHT22;1521;53.584;9.938;2023-03-14T15:52:47;5.70;1.00
3023;DHT22;1521;53.584;9.938;2023-03-14T15:55:13;5.70;1.00
3023;DHT22;1521;53.584;9.938;2023-03-14T15:57:40;5.70;1.00
3023;DHT22;1521;53.584;9.938;2023-03-14T16:00:08;5.70;1.00
3023;DHT22;1521;53.584;9.938;2023-03-14T16:02:36;5.70;1.00
3023;DHT22;1521;53.584;9.938;2023-03-14T16:05:05;5.80;1.00
3023;DHT22;1521;53.584;9.938;2023-03-14T16:07:31;5.70;1.00
3023;DHT22;1521;53.584;9.938;2023-03-14T16:09:58;5.70;1.00
3023;DHT22;1521;53.584;9.938;2023-03-14T16:12:24;5.70;1.00
3023;DHT22;1521;53.584;9.938;2023-03-14T16:14:49;5.60;1.00
3023;DHT22;1521;53.584;9.938;2023-03-14T16:17:15;5.60;1.00
3023;DHT22;1521;53.584;9.938;2023-03-14T16:19:41;5.60;1.00
3023;DHT22;1521;53.584;9.938;2023-03-14T16:22:06;5.60;1.00
3023;DHT22;1521;53.584;9.938;2023-03-14T16:24:32;5.60;1.00
3023;DHT22;1521;53.584;9.938;2023-03-14T16:26:58;5.60;1.00
3023;DHT22;1521;53.584;9.938;2023-03-14T16:29:23;5.50;1.00
3023;DHT22;1521;53.584;9.938;2023-03-14T16:31:49;5.30;1.00
3023;DHT22;1521;53.584;9.938;2023-03-14T16:34:14;5.20;1.00
3023;DHT22;1521;53.584;9.938;2023-03-14T16:36:40;5.10;1.00
3023;DHT22;1521;53.584;9.938;2023-03-14T16:39:05;5.00;1.00
3023;DHT22;1521;53.584;9.938;2023-03-14T16:41:31;5.00;1.00
3023;DHT22;1521;53.584;9.938;2023-03-14T16:44:00;5.00;1.00
3023;DHT22;1521;53.584;9.938;2023-03-14T16:46:26;4.90;1.00
3023;DHT22;1521;53.584;9.938;2023-03-14T16:48:53;4.90;1.00
3023;DHT22;1521;53.584;9.938;2023-03-14T16:51:19;4.90;1.00
3023;DHT22;1521;53.584;9.938;2023-03-14T16:53:45;4.90;1.00
3023;DHT22;1521;53.584;9.938;2023-03-14T16:56:12;4.80;1.00
3023;DHT22;1521;53.584;9.938;2023-03-14T16:58:38;4.80;1.00
3023;DHT22;1521;53.584;9.938;2023-03-14T17:01:05;4.70;1.00
3023;DHT22;1521;53.584;9.938;2023-03-14T17:03:43;4.70;1.00
3023;DHT22;1521;53.584;9.938;2023-03-14T17:06:17;4.70;1.00
3023;DHT22;1521;53.584;9.938;2023-03-14T17:08:43;4.60;1.00
3023;DHT22;1521;53.584;9.938;2023-03-14T17:11:09;4.50;1.00
3023;DHT22;1521;53.584;9.938;2023-03-14T17:13:36;4.50;1.00
3023;DHT22;1521;53.584;9.938;2023-03-14T17:16:02;4.40;1.00
3023;DHT22;1521;53.584;9.938;2023-03-14T17:18:29;4.40;1.00
3023;DHT22;1521;53.584;9.938;2023-03-14T17:20:56;4.40;1.00
3023;DHT22;1521;53.584;9.938;2023-03-14T17:23:27;4.30;1.00
3023;DHT22;1521;53.584;9.938;2023-03-14T17:25:53;4.30;1.00
3023;DHT22;1521;53.584;9.938;2023-03-14T17:28:20;4.30;1.00
3023;DHT22;1521;53.584;9.938;2023-03-14T17:30:47;4.20;1.00
3023;DHT22;1521;53.584;9.938;2023-03-14T17:33:13;4.20;1.00
3023;DHT22;1521;53.584;9.938;2023-03-14T17:35:39;4.20;1.00
3023;DHT22;1521;53.584;9.938;2023-03-14T17:38:04;4.20;1.00